Time;durP1;ratioP1;P1;durP2;ratioP2;P2;SDS_P1;SDS_P2;PMS_P1;PMS_P2;Temp;Humidity;BMP_temperature;BMP_pressure;BME280_temperature;BME280_humidity;BME280_pressure;Samples;Min_cycle;Max_cycle;Signal;HPM_P1;HPM_P2
2021/09/28 00:02:17;;;;;;;;;;;;;;;;;;5015732;28;20000;-85
2021/09/28 00:04:53;;;;;;;;;;;;;;;;;;5030112;28;19952;-88
2021/09/28 00:07:25;;;;;;;;;;;;;;;;;;5007862;28;19926;-89
2021/09/28 00:09:57;;;;;;;;;;;;;;;;;;5020432;28;20005;-90
2021/09/28 00:12:30;;;;;;;;;;;;;;;;;;5017757;28;20303;-86
2021/09/28 00:15:02;;;;;;;;;;;;;;;;;;5016416;28;19962;-91
2021/09/28 00:17:39;;;;;;;;;;;;;;;;;;5052215;28;19921;-89
2021/09/28 00:20:17;;;;;;;;;;;;;;;;;;5039323;28;19925;-90
2021/09/28 00:22:48;;;;;;;;;;;;;;;;;;5019177;28;19932;-90
2021/09/28 00:25:17;;;;;;;;;;;;;;;;;;5019620;28;19925;-85
2021/09/28 00:27:46;;;;;;;;;;;;;;;;;;5038943;28;19937;-91
2021/09/28 00:30:16;;;;;;;;;;;;;;;;;;5049850;28;19955;-88
2021/09/28 00:32:50;;;;;;;;;;;;;;;;;;5034262;28;19917;-92
2021/09/28 00:35:21;;;;;;;;;;;;;;;;;;5039262;28;19925;-88
2021/09/28 00:37:50;;;;;;;;;;;;;;;;;;5027037;28;19936;-87
2021/09/28 00:40:18;;;;;;;;;;;;;;;;;;5029212;28;20477;-85
2021/09/28 00:42:56;;;;;;;;;;;;;;;;;;5019197;28;20306;-89
2021/09/28 00:45:31;;;;;;;;;;;;;;;;;;5026782;28;19969;-88
2021/09/28 00:47:59;;;;;;;;;;;;;;;;;;5034913;28;19929;-88
2021/09/28 00:50:29;;;;;;;;;;;;;;;;;;5036197;28;19925;-88
2021/09/28 00:52:57;;;;;;;;;;;;;;;;;;5035234;28;19916;-89
2021/09/28 00:55:28;;;;;;;;;;;;;;;;;;5026985;28;19925;-84
2021/09/28 00:57:57;;;;;;;;;;;;;;;;;;5011779;28;19925;-89
2021/09/28 01:00:26;;;;;;;;;;;;;;;;;;5035999;28;20413;-86
2021/09/28 01:02:54;;;;;;;;;;;;;;;;;;5026053;28;21128;-85
2021/09/28 01:05:22;;;;;;;;;;;;;;;;;;5013190;28;19925;-88
2021/09/28 01:07:52;;;;;;;;;;;;;;;;;;5030362;28;19925;-88
2021/09/28 01:10:20;;;;;;;;;;;;;;;;;;5013078;28;19932;-87
2021/09/28 01:12:49;;;;;;;;;;;;;;;;;;5034965;28;19929;-88
2021/09/28 01:15:17;;;;;;;;;;;;;;;;;;5025398;28;19926;-87
2021/09/28 01:17:45;;;;;;;;;;;;;;;;;;5014252;28;19948;-86
2021/09/28 01:20:14;;;;;;;;;;;;;;;;;;5017838;28;19925;-86
2021/09/28 01:22:43;;;;;;;;;;;;;;;;;;5020383;28;19929;-88
2021/09/28 01:25:11;;;;;;;;;;;;;;;;;;5014826;28;19926;-88
2021/09/28 01:27:40;;;;;;;;;;;;;;;;;;5018508;28;19925;-86
2021/09/28 01:30:09;;;;;;;;;;;;;;;;;;5012810;28;19932;-86
2021/09/28 01:32:39;;;;;;;;;;;;;;;;;;5015066;28;19929;-86
2021/09/28 01:35:10;;;;;;;;;;;;;;;;;;5012167;28;19936;-88
2021/09/28 01:37:41;;;;;;;;;;;;;;;;;;5017691;28;19940;-86
2021/09/28 01:40:12;;;;;;;;;;;;;;;;;;5040106;28;19925;-84
2021/09/28 01:42:40;;;;;;;;;;;;;;;;;;5036269;28;19928;-86
2021/09/28 01:45:09;;;;;;;;;;;;;;;;;;5013127;28;19936;-87
2021/09/28 01:47:38;;;;;;;;;;;;;;;;;;5005722;28;20415;-86
2021/09/28 01:50:10;;;;;;;;;;;;;;;;;;5024204;28;19925;-86
2021/09/28 01:55:38;;;;;;;;;;;;;;;;;;5016199;28;19944;-88
2021/09/28 01:58:06;;;;;;;;;;;;;;;;;;5029771;28;19932;-88
2021/09/28 02:00:35;;;;;;;;;;;;;;;;;;5014655;28;19925;-86
2021/09/28 02:03:03;;;;;;;;;;;;;;;;;;5019153;28;19929;-83
2021/09/28 02:05:32;;;;;;;;;;;;;;;;;;5033349;28;20414;-88
2021/09/28 02:08:01;;;;;;;;;;;;;;;;;;5004466;28;19933;-82
2021/09/28 02:10:30;;;;;;;;;;;;;;;;;;5031745;28;19929;-82
2021/09/28 02:13:03;;;;;;;;;;;;;;;;;;5016956;28;19925;-85
2021/09/28 02:15:32;;;;;;;;;;;;;;;;;;5013274;28;19932;-84
2021/09/28 02:18:01;;;;;;;;;;;;;;;;;;5008849;28;19925;-86
2021/09/28 02:20:29;;;;;;;;;;;;;;;;;;5012680;28;19940;-86
2021/09/28 02:22:57;;;;;;;;;;;;;;;;;;5023122;28;20386;-86
2021/09/28 02:25:25;;;;;;;;;;;;;;;;;;5040015;28;19932;-86
2021/09/28 02:27:53;;;;;;;;;;;;;;;;;;5020534;28;19925;-86
2021/09/28 02:30:23;;;;;;;;;;;;;;;;;;5012218;28;19926;-82
2021/09/28 02:32:51;;;;;;;;;;;;;;;;;;5035724;28;19932;-85
2021/09/28 02:35:20;;;;;;;;;;;;;;;;;;5012518;28;19925;-85
2021/09/28 02:37:48;;;;;;;;;;;;;;;;;;5024513;28;19932;-86
2021/09/28 02:40:16;;;;;;;;;;;;;;;;;;5034397;28;19913;-88
2021/09/28 02:42:46;;;;;;;;;;;;;;;;;;5025893;28;19933;-85
2021/09/28 02:45:15;;;;;;;;;;;;;;;;;;5012186;28;19936;-83
2021/09/28 02:47:44;;;;;;;;;;;;;;;;;;5046914;28;19925;-85
2021/09/28 02:50:13;;;;;;;;;;;;;;;;;;5033729;28;19933;-82
2021/09/28 02:52:41;;;;;;;;;;;;;;;;;;5038738;28;19925;-82
2021/09/28 02:55:09;;;;;;;;;;;;;;;;;;5037198;28;19932;-82
2021/09/28 02:57:37;;;;;;;;;;;;;;;;;;5033134;28;19925;-84
2021/09/28 03:00:06;;;;;;;;;;;;;;;;;;5040956;28;19952;-82
2021/09/28 03:02:35;;;;;;;;;;;;;;;;;;5013327;28;19932;-84
2021/09/28 03:05:05;;;;;;;;;;;;;;;;;;5014942;28;19932;-82
2021/09/28 03:07:34;;;;;;;;;;;;;;;;;;5008368;28;19929;-84
2021/09/28 03:10:02;;;;;;;;;;;;;;;;;;5013891;28;19933;-82
2021/09/28 03:12:31;;;;;;;;;;;;;;;;;;5033067;28;19932;-84
2021/09/28 03:15:00;;;;;;;;;;;;;;;;;;5014014;28;19925;-85
2021/09/28 03:17:28;;;;;;;;;;;;;;;;;;5004451;28;19932;-82
2021/09/28 03:19:57;;;;;;;;;;;;;;;;;;5021438;28;19925;-86
2021/09/28 03:22:27;;;;;;;;;;;;;;;;;;5018542;28;19933;-86
2021/09/28 03:24:55;;;;;;;;;;;;;;;;;;5019270;28;19929;-82
2021/09/28 03:27:23;;;;;;;;;;;;;;;;;;5013451;28;19926;-86
2021/09/28 03:29:51;;;;;;;;;;;;;;;;;;5037485;28;20276;-87
2021/09/28 03:32:20;;;;;;;;;;;;;;;;;;5017864;28;19929;-85
2021/09/28 03:34:48;;;;;;;;;;;;;;;;;;5034883;28;20339;-83
2021/09/28 03:37:16;;;;;;;;;;;;;;;;;;5038664;28;20311;-83
2021/09/28 03:39:46;;;;;;;;;;;;;;;;;;5016337;28;19925;-82
2021/09/28 03:42:14;;;;;;;;;;;;;;;;;;5003209;28;20384;-83
2021/09/28 03:44:43;;;;;;;;;;;;;;;;;;5004490;28;19933;-82
2021/09/28 03:47:11;;;;;;;;;;;;;;;;;;5013842;28;19925;-82
2021/09/28 03:49:40;;;;;;;;;;;;;;;;;;5028360;28;19936;-85
2021/09/28 03:52:08;;;;;;;;;;;;;;;;;;5009160;28;19929;-85
2021/09/28 03:54:37;;;;;;;;;;;;;;;;;;5014129;28;19952;-82
2021/09/28 03:57:06;;;;;;;;;;;;;;;;;;5026119;28;20509;-82
2021/09/28 03:59:35;;;;;;;;;;;;;;;;;;5036352;28;19925;-83
2021/09/28 04:02:03;;;;;;;;;;;;;;;;;;5018307;28;20001;-83
2021/09/28 04:04:33;;;;;;;;;;;;;;;;;;5032252;28;19933;-84
2021/09/28 04:07:01;;;;;;;;;;;;;;;;;;5020359;28;19925;-85
2021/09/28 04:09:29;;;;;;;;;;;;;;;;;;5039778;28;21405;-82
2021/09/28 04:11:58;;;;;;;;;;;;;;;;;;5021155;28;19929;-83
2021/09/28 04:14:27;;;;;;;;;;;;;;;;;;5022172;28;19933;-82
2021/09/28 04:16:56;;;;;;;;;;;;;;;;;;5020351;28;19930;-85
2021/09/28 04:19:24;;;;;;;;;;;;;;;;;;5041052;28;19932;-83
2021/09/28 04:21:53;;;;;;;;;;;;;;;;;;5023294;28;20110;-83
2021/09/28 04:24:23;;;;;;;;;;;;;;;;;;5041384;28;19948;-84
2021/09/28 04:26:51;;;;;;;;;;;;;;;;;;5031598;28;19940;-83
2021/09/28 04:29:20;;;;;;;;;;;;;;;;;;5030422;28;19925;-85
2021/09/28 04:31:49;;;;;;;;;;;;;;;;;;5033555;28;19971;-84
2021/09/28 04:34:18;;;;;;;;;;;;;;;;;;5015643;28;19954;-82
2021/09/28 04:36:46;;;;;;;;;;;;;;;;;;5037688;28;20399;-83
2021/09/28 04:39:14;;;;;;;;;;;;;;;;;;5021556;28;19932;-82
2021/09/28 04:41:43;;;;;;;;;;;;;;;;;;5033816;28;19951;-83
2021/09/28 04:44:11;;;;;;;;;;;;;;;;;;5022291;28;19932;-83
2021/09/28 04:46:39;;;;;;;;;;;;;;;;;;5037121;28;19932;-82
2021/09/28 04:49:09;;;;;;;;;;;;;;;;;;5022775;28;19944;-88
2021/09/28 04:51:38;;;;;;;;;;;;;;;;;;5019669;28;20231;-82
2021/09/28 04:54:06;;;;;;;;;;;;;;;;;;5016734;28;19936;-82
2021/09/28 04:56:35;;;;;;;;;;;;;;;;;;5019249;28;19932;-84
2021/09/28 04:59:04;;;;;;;;;;;;;;;;;;5037661;28;20253;-82
2021/09/28 05:01:33;;;;;;;;;;;;;;;;;;5011741;28;19925;-86
2021/09/28 05:04:02;;;;;;;;;;;;;;;;;;5035343;28;19925;-85
2021/09/28 05:06:31;;;;;;;;;;;;;;;;;;5042102;28;19925;-82
2021/09/28 05:08:59;;;;;;;;;;;;;;;;;;5011715;28;19924;-85
2021/09/28 05:11:28;;;;;;;;;;;;;;;;;;5030198;28;19929;-82
2021/09/28 05:13:56;;;;;;;;;;;;;;;;;;5006677;28;20304;-82
2021/09/28 05:16:24;;;;;;;;;;;;;;;;;;5008265;28;19925;-82
2021/09/28 05:18:52;;;;;;;;;;;;;;;;;;5010803;28;19926;-84
2021/09/28 05:21:21;;;;;;;;;;;;;;;;;;5026868;28;19931;-82
2021/09/28 05:23:50;;;;;;;;;;;;;;;;;;5013854;28;19929;-83
2021/09/28 05:26:18;;;;;;;;;;;;;;;;;;5030852;28;20450;-83
2021/09/28 05:28:47;;;;;;;;;;;;;;;;;;5019975;28;19932;-85
2021/09/28 05:31:15;;;;;;;;;;;;;;;;;;5004391;28;20595;-86
2021/09/28 05:33:43;;;;;;;;;;;;;;;;;;5017301;28;19928;-87
2021/09/28 05:36:11;;;;;;;;;;;;;;;;;;5010815;28;19945;-87
2021/09/28 05:38:40;;;;;;;;;;;;;;;;;;5026155;28;19934;-88
2021/09/28 05:41:09;;;;;;;;;;;;;;;;;;5013887;28;20430;-83
2021/09/28 05:43:38;;;;;;;;;;;;;;;;;;5012897;28;19925;-87
2021/09/28 05:46:07;;;;;;;;;;;;;;;;;;5009454;28;19936;-87
2021/09/28 05:48:35;;;;;;;;;;;;;;;;;;5006853;28;19925;-86
2021/09/28 05:51:04;;;;;;;;;;;;;;;;;;5013477;28;19925;-87
2021/09/28 05:53:36;;;;;;;;;;;;;;;;;;5030623;28;19940;-88
2021/09/28 05:56:05;;;;;;;;;;;;;;;;;;5032346;28;20336;-87
2021/09/28 05:58:34;;;;;;;;;;;;;;;;;;5034103;28;19936;-88
2021/09/28 06:01:03;;;;;;;;;;;;;;;;;;5010469;28;19930;-87
2021/09/28 06:03:31;;;;;;;;;;;;;;;;;;5033664;28;19933;-87
2021/09/28 06:06:00;;;;;;;;;;;;;;;;;;5011379;28;19929;-87
2021/09/28 06:08:28;;;;;;;;;;;;;;;;;;5016705;28;19932;-87
2021/09/28 06:10:57;;;;;;;;;;;;;;;;;;5014367;28;19925;-88
2021/09/28 06:13:25;;;;;;;;;;;;;;;;;;5027743;28;19925;-88
2021/09/28 06:15:55;;;;;;;;;;;;;;;;;;5032403;28;19941;-88
2021/09/28 06:18:23;;;;;;;;;;;;;;;;;;5016390;28;19932;-88
2021/09/28 06:20:51;;;;;;;;;;;;;;;;;;5013269;28;19925;-87
2021/09/28 06:23:20;;;;;;;;;;;;;;;;;;5033381;28;19929;-88
2021/09/28 06:25:48;;;;;;;;;;;;;;;;;;5019165;28;20275;-86
2021/09/28 06:28:18;;;;;;;;;;;;;;;;;;5034203;28;19925;-86
2021/09/28 06:30:46;;;;;;;;;;;;;;;;;;5015450;28;19932;-86
2021/09/28 06:33:16;;;;;;;;;;;;;;;;;;5038777;28;19925;-87
2021/09/28 06:35:44;;;;;;;;;;;;;;;;;;5014331;28;19925;-86
2021/09/28 06:38:12;;;;;;;;;;;;;;;;;;5007899;28;19933;-87
2021/09/28 06:40:41;;;;;;;;;;;;;;;;;;5014334;28;19929;-87
2021/09/28 06:43:09;;;;;;;;;;;;;;;;;;5016021;28;19933;-88
2021/09/28 06:45:37;;;;;;;;;;;;;;;;;;5024998;28;20398;-85
2021/09/28 06:48:06;;;;;;;;;;;;;;;;;;5017705;28;20388;-86
2021/09/28 06:50:36;;;;;;;;;;;;;;;;;;5010093;28;19933;-88
2021/09/28 06:53:04;;;;;;;;;;;;;;;;;;5009370;28;19934;-88
2021/09/28 06:55:35;;;;;;;;;;;;;;;;;;5034161;28;19929;-87
2021/09/28 06:58:04;;;;;;;;;;;;;;;;;;5020464;28;19929;-87
2021/09/28 07:00:35;;;;;;;;;;;;;;;;;;5028345;28;19936;-88
2021/09/28 07:03:03;;;;;;;;;;;;;;;;;;5009735;28;20518;-88
2021/09/28 07:05:32;;;;;;;;;;;;;;;;;;5015395;28;19925;-87
2021/09/28 07:08:02;;;;;;;;;;;;;;;;;;5019368;28;19925;-88
2021/09/28 07:10:32;;;;;;;;;;;;;;;;;;5016828;28;19933;-86
2021/09/28 07:13:01;;;;;;;;;;;;;;;;;;5018754;28;19929;-87
2021/09/28 07:15:29;;;;;;;;;;;;;;;;;;5014314;28;19940;-87
2021/09/28 07:17:57;;;;;;;;;;;;;;;;;;5015794;28;20315;-87
2021/09/28 07:20:26;;;;;;;;;;;;;;;;;;5018866;28;20402;-86
2021/09/28 07:22:54;;;;;;;;;;;;;;;;;;5015225;28;19925;-86
2021/09/28 07:25:24;;;;;;;;;;;;;;;;;;5014300;28;20302;-87
2021/09/28 07:27:57;;;;;;;;;;;;;;;;;;5030676;28;19933;-87
2021/09/28 07:30:26;;;;;;;;;;;;;;;;;;5015798;28;19933;-86
2021/09/28 07:32:55;;;;;;;;;;;;;;;;;;5012232;28;20335;-86
2021/09/28 07:35:24;;;;;;;;;;;;;;;;;;5043886;28;19936;-87
2021/09/28 07:37:53;;;;;;;;;;;;;;;;;;5014569;28;19929;-86
2021/09/28 07:40:21;;;;;;;;;;;;;;;;;;5010566;28;19937;-87
2021/09/28 07:42:53;;;;;;;;;;;;;;;;;;5026607;28;19940;-87
2021/09/28 07:45:21;;;;;;;;;;;;;;;;;;5008137;28;19940;-87
2021/09/28 07:47:50;;;;;;;;;;;;;;;;;;5020274;28;19932;-87
2021/09/28 07:50:18;;;;;;;;;;;;;;;;;;5016116;28;19929;-87
2021/09/28 07:52:47;;;;;;;;;;;;;;;;;;5016296;28;19932;-86
2021/09/28 07:55:16;;;;;;;;;;;;;;;;;;5028844;28;19944;-87
2021/09/28 07:57:44;;;;;;;;;;;;;;;;;;5019826;28;19929;-87
2021/09/28 08:00:14;;;;;;;;;;;;;;;;;;5038494;28;19925;-88
2021/09/28 08:02:43;;;;;;;;;;;;;;;;;;5065445;28;19925;-87
2021/09/28 08:05:11;;;;;;;;;;;;;;;;;;5024103;28;19933;-87
2021/09/28 08:07:40;;;;;;;;;;;;;;;;;;5041450;28;19940;-87
2021/09/28 08:10:09;;;;;;;;;;;;;;;;;;5028595;28;20399;-87
2021/09/28 08:12:37;;;;;;;;;;;;;;;;;;5026112;28;19925;-87
2021/09/28 08:15:06;;;;;;;;;;;;;;;;;;5029375;28;19924;-87
2021/09/28 08:17:38;;;;;;;;;;;;;;;;;;5040659;28;19929;-87
2021/09/28 08:20:09;;;;;;;;;;;;;;;;;;5023308;28;19931;-87
2021/09/28 08:22:39;;;;;;;;;;;;;;;;;;5022206;28;19933;-87
2021/09/28 08:25:10;;;;;;;;;;;;;;;;;;5040376;28;19937;-88
2021/09/28 08:30:24;;;;;;;;;;;;;;;;;;5014245;28;19926;-86
2021/09/28 08:32:54;;;;;;;;;;;;;;;;;;5020570;28;19928;-87
2021/09/28 08:35:23;;;;;;;;;;;;;;;;;;5029259;28;19934;-87
2021/09/28 08:37:51;;;;;;;;;;;;;;;;;;5023175;28;19933;-86
2021/09/28 08:40:19;;;;;;;;;;;;;;;;;;5026653;28;19929;-87
2021/09/28 08:42:52;;;;;;;;;;;;;;;;;;5018027;28;19931;-87
2021/09/28 08:45:20;;;;;;;;;;;;;;;;;;5026225;28;19925;-88
2021/09/28 08:47:49;;;;;;;;;;;;;;;;;;5020332;28;19932;-87
2021/09/28 08:50:20;;;;;;;;;;;;;;;;;;5018766;28;19925;-87
2021/09/28 08:52:49;;;;;;;;;;;;;;;;;;5017850;28;20307;-87
2021/09/28 08:55:21;;;;;;;;;;;;;;;;;;5053752;28;19925;-87
2021/09/28 08:57:51;;;;;;;;;;;;;;;;;;5024626;28;19926;-87
2021/09/28 09:00:23;;;;;;;;;;;;;;;;;;5035701;28;19925;-86
2021/09/28 09:02:58;;;;;;;;;;;;;;;;;;5041432;28;19933;-87
2021/09/28 09:05:32;;;;;;;;;;;;;;;;;;5029602;28;19925;-86
2021/09/28 09:08:04;;;;;;;;;;;;;;;;;;5011793;28;19942;-86
2021/09/28 09:10:33;;;;;;;;;;;;;;;;;;5018800;28;19925;-87
2021/09/28 09:13:01;;;;;;;;;;;;;;;;;;5030509;28;19929;-87
2021/09/28 09:15:31;;;;;;;;;;;;;;;;;;5012620;28;19941;-88
2021/09/28 09:18:00;;;;;;;;;;;;;;;;;;5022807;28;19940;-87
2021/09/28 09:20:38;;;;;;;;;;;;;;;;;;5016417;28;19925;-86
2021/09/28 09:23:17;;;;;;;;;;;;;;;;;;5009197;28;19933;-86
2021/09/28 09:25:45;;;;;;;;;;;;;;;;;;5021033;28;19948;-86
2021/09/28 09:28:21;;;;;;;;;;;;;;;;;;5023862;28;19947;-86
2021/09/28 09:30:49;;;;;;;;;;;;;;;;;;5019294;28;19972;-87
2021/09/28 09:33:23;;;;;;;;;;;;;;;;;;5018144;28;19926;-87
2021/09/28 09:35:58;;;;;;;;;;;;;;;;;;5026999;28;20190;-88
2021/09/28 09:38:27;;;;;;;;;;;;;;;;;;5015056;28;19925;-87
2021/09/28 09:40:58;;;;;;;;;;;;;;;;;;5036026;28;19929;-87
2021/09/28 09:43:30;;;;;;;;;;;;;;;;;;5028916;28;19925;-87
2021/09/28 09:46:09;;;;;;;;;;;;;;;;;;5048381;28;19936;-87
2021/09/28 09:48:39;;;;;;;;;;;;;;;;;;5026336;28;19929;-87
2021/09/28 09:51:10;;;;;;;;;;;;;;;;;;5031724;28;19913;-87
2021/09/28 09:53:39;;;;;;;;;;;;;;;;;;5037505;28;20141;-87
2021/09/28 09:56:07;;;;;;;;;;;;;;;;;;5018734;28;19925;-88
2021/09/28 09:58:36;;;;;;;;;;;;;;;;;;5038608;28;19932;-87
2021/09/28 10:01:04;;;;;;;;;;;;;;;;;;5018560;28;20406;-87
2021/09/28 10:03:33;;;;;;;;;;;;;;;;;;5030112;28;19933;-86
2021/09/28 10:06:01;;;;;;;;;;;;;;;;;;5004495;28;19948;-86
2021/09/28 10:08:31;;;;;;;;;;;;;;;;;;5011842;28;19926;-87
2021/09/28 10:11:00;;;;;;;;;;;;;;;;;;5002874;28;19929;-85
2021/09/28 10:17:47;;;;;;;;;;;;;;;;;;4995114;28;19956;-86
2021/09/28 10:20:28;;;;;;;;;;;;;;;;;;5007611;28;20300;-85
2021/09/28 10:22:58;;;;;;;;;;;;;;;;;;5021391;28;19932;-84
2021/09/28 10:25:38;;;;;;;;;;;;;;;;;;5004235;28;19925;-84
2021/09/28 10:28:43;;;;;;;;;;;;;;;;;;5027289;28;20248;-84
2021/09/28 10:31:14;;;;;;;;;;;;;;;;;;5019982;28;19925;-85
2021/09/28 10:33:54;;;;;;;;;;;;;;;;;;5031081;28;20404;-84
2021/09/28 10:36:25;;;;;;;;;;;;;;;;;;5012209;28;20403;-85
2021/09/28 10:38:58;;;;;;;;;;;;;;;;;;5020743;28;19932;-84
2021/09/28 10:41:43;;;;;;;;;;;;;;;;;;5010756;28;19925;-84
2021/09/28 10:44:47;;;;;;;;;;;;;;;;;;5005913;28;20040;-85
2021/09/28 10:47:34;;;;;;;;;;;;;;;;;;5028546;28;19936;-84
2021/09/28 10:50:23;;;;;;;;;;;;;;;;;;5011910;28;20339;-84
2021/09/28 10:52:52;;;;;;;;;;;;;;;;;;5010085;28;19933;-84
2021/09/28 10:55:22;;;;;;;;;;;;;;;;;;5005732;28;19926;-83
2021/09/28 10:58:09;;;;;;;;;;;;;;;;;;5033124;28;19933;-82
2021/09/28 11:00:56;;;;;;;;;;;;;;;;;;5035110;28;19932;-82
2021/09/28 11:03:39;;;;;;;;;;;;;;;;;;5014370;28;19925;-83
2021/09/28 11:06:08;;;;;;;;;;;;;;;;;;5017981;28;19931;-84
2021/09/28 11:08:37;;;;;;;;;;;;;;;;;;5026889;28;19933;-83
2021/09/28 11:11:05;;;;;;;;;;;;;;;;;;5015597;28;19925;-83
2021/09/28 11:13:36;;;;;;;;;;;;;;;;;;5023366;28;19925;-84
2021/09/28 11:16:05;;;;;;;;;;;;;;;;;;5030565;28;19929;-84
2021/09/28 11:18:33;;;;;;;;;;;;;;;;;;5020039;28;19925;-85
2021/09/28 11:21:07;;;;;;;;;;;;;;;;;;5029297;28;20298;-85
2021/09/28 11:23:35;;;;;;;;;;;;;;;;;;5007141;28;20307;-84
2021/09/28 11:26:04;;;;;;;;;;;;;;;;;;5006814;28;19925;-84
2021/09/28 11:28:35;;;;;;;;;;;;;;;;;;5026296;28;19941;-85
2021/09/28 11:31:05;;;;;;;;;;;;;;;;;;5015867;28;19924;-85
2021/09/28 11:33:36;;;;;;;;;;;;;;;;;;5009356;28;19925;-85
2021/09/28 11:36:06;;;;;;;;;;;;;;;;;;5010458;28;19929;-85
2021/09/28 11:38:36;;;;;;;;;;;;;;;;;;5009109;28;19932;-85
2021/09/28 11:41:10;;;;;;;;;;;;;;;;;;5009457;28;19933;-84
2021/09/28 11:43:40;;;;;;;;;;;;;;;;;;5015238;28;19929;-85
2021/09/28 11:46:09;;;;;;;;;;;;;;;;;;5011296;28;19932;-83
2021/09/28 11:48:39;;;;;;;;;;;;;;;;;;5012028;28;19925;-84
2021/09/28 11:51:07;;;;;;;;;;;;;;;;;;5023296;28;19955;-84
2021/09/28 11:53:39;;;;;;;;;;;;;;;;;;5021560;28;19925;-85
2021/09/28 11:56:08;;;;;;;;;;;;;;;;;;5020714;28;19941;-84
2021/09/28 11:58:37;;;;;;;;;;;;;;;;;;5039235;28;19933;-84
2021/09/28 12:01:07;;;;;;;;;;;;;;;;;;5042688;28;19925;-85
2021/09/28 12:03:41;;;;;;;;;;;;;;;;;;5006629;28;19933;-84
2021/09/28 12:06:19;;;;;;;;;;;;;;;;;;5007647;28;19932;-84
2021/09/28 12:08:47;;;;;;;;;;;;;;;;;;5018687;28;19952;-84
2021/09/28 12:11:18;;;;;;;;;;;;;;;;;;5005867;28;19926;-85
2021/09/28 12:13:50;;;;;;;;;;;;;;;;;;5032433;28;19921;-82
2021/09/28 12:16:22;;;;;;;;;;;;;;;;;;5053020;28;19913;-82
2021/09/28 12:19:03;;;;;;;;;;;;;;;;;;5051129;28;19925;-84
2021/09/28 12:21:32;;;;;;;;;;;;;;;;;;5008098;28;19925;-84
2021/09/28 12:24:13;;;;;;;;;;;;;;;;;;5011695;28;20403;-84
2021/09/28 12:26:42;;;;;;;;;;;;;;;;;;5024181;28;19932;-81
2021/09/28 12:29:11;;;;;;;;;;;;;;;;;;5025411;28;19925;-84
2021/09/28 12:31:41;;;;;;;;;;;;;;;;;;5015803;28;19929;-87
2021/09/28 12:34:11;;;;;;;;;;;;;;;;;;5026881;28;19925;-86
2021/09/28 12:36:41;;;;;;;;;;;;;;;;;;5007729;28;20214;-83
2021/09/28 12:39:11;;;;;;;;;;;;;;;;;;5023500;28;20421;-84
2021/09/28 12:41:54;;;;;;;;;;;;;;;;;;5027146;28;20388;-83
2021/09/28 12:44:22;;;;;;;;;;;;;;;;;;5008686;28;19932;-84
2021/09/28 12:46:52;;;;;;;;;;;;;;;;;;5036328;28;19932;-83
2021/09/28 12:49:27;;;;;;;;;;;;;;;;;;5029495;28;19933;-84
2021/09/28 12:51:56;;;;;;;;;;;;;;;;;;5047103;28;19932;-84
2021/09/28 12:54:24;;;;;;;;;;;;;;;;;;5037473;28;20399;-84
2021/09/28 12:56:53;;;;;;;;;;;;;;;;;;5001156;28;19936;-85
2021/09/28 12:59:21;;;;;;;;;;;;;;;;;;5009796;28;19933;-85
2021/09/28 13:01:50;;;;;;;;;;;;;;;;;;5024071;28;20307;-84
2021/09/28 13:04:20;;;;;;;;;;;;;;;;;;5011718;28;19936;-84
2021/09/28 13:06:54;;;;;;;;;;;;;;;;;;5010638;28;19929;-84
2021/09/28 13:09:22;;;;;;;;;;;;;;;;;;5024533;28;19932;-84
2021/09/28 13:11:50;;;;;;;;;;;;;;;;;;5007588;28;20228;-86
2021/09/28 13:14:18;;;;;;;;;;;;;;;;;;5028100;28;19929;-83
2021/09/28 13:16:47;;;;;;;;;;;;;;;;;;5006190;28;20257;-83
2021/09/28 13:19:15;;;;;;;;;;;;;;;;;;5006056;28;19933;-83
2021/09/28 13:21:45;;;;;;;;;;;;;;;;;;5014464;28;19940;-83
2021/09/28 13:24:13;;;;;;;;;;;;;;;;;;5016239;28;19926;-85
2021/09/28 13:26:42;;;;;;;;;;;;;;;;;;5005842;28;19941;-85
2021/09/28 13:29:11;;;;;;;;;;;;;;;;;;5013769;28;19925;-85
2021/09/28 13:31:39;;;;;;;;;;;;;;;;;;5013391;28;20494;-85
2021/09/28 13:34:08;;;;;;;;;;;;;;;;;;5009448;28;19936;-85
2021/09/28 13:36:37;;;;;;;;;;;;;;;;;;5006939;28;20438;-85
2021/09/28 13:39:07;;;;;;;;;;;;;;;;;;5024917;28;19936;-86
2021/09/28 13:41:36;;;;;;;;;;;;;;;;;;5024570;28;19936;-82
2021/09/28 13:44:04;;;;;;;;;;;;;;;;;;5024902;28;19933;-82
2021/09/28 13:46:33;;;;;;;;;;;;;;;;;;5023468;28;19940;-82
2021/09/28 13:49:02;;;;;;;;;;;;;;;;;;5008692;28;20414;-83
2021/09/28 13:51:30;;;;;;;;;;;;;;;;;;5008214;28;19933;-83
2021/09/28 13:53:59;;;;;;;;;;;;;;;;;;5030547;28;19929;-86
2021/09/28 13:56:29;;;;;;;;;;;;;;;;;;4996550;28;19960;-85
2021/09/28 13:59:02;;;;;;;;;;;;;;;;;;5009374;28;19925;-85
2021/09/28 14:01:30;;;;;;;;;;;;;;;;;;5019781;28;20319;-84
2021/09/28 14:03:59;;;;;;;;;;;;;;;;;;5020962;28;20003;-85
2021/09/28 14:06:27;;;;;;;;;;;;;;;;;;5011484;28;19925;-85
2021/09/28 14:08:55;;;;;;;;;;;;;;;;;;5025047;28;20292;-86
2021/09/28 14:11:23;;;;;;;;;;;;;;;;;;5008010;28;20291;-85
2021/09/28 14:13:53;;;;;;;;;;;;;;;;;;5007662;28;19932;-84
2021/09/28 14:16:21;;;;;;;;;;;;;;;;;;5008419;28;19956;-85
2021/09/28 14:18:50;;;;;;;;;;;;;;;;;;5024009;28;19925;-86
2021/09/28 14:21:18;;;;;;;;;;;;;;;;;;5003183;28;19929;-86
2021/09/28 14:23:46;;;;;;;;;;;;;;;;;;5024761;28;19947;-87
2021/09/28 14:26:15;;;;;;;;;;;;;;;;;;5007986;28;20457;-86
2021/09/28 14:28:43;;;;;;;;;;;;;;;;;;5004323;28;20211;-86
2021/09/28 14:31:13;;;;;;;;;;;;;;;;;;5012990;28;19936;-86
2021/09/28 14:33:41;;;;;;;;;;;;;;;;;;5015156;28;20004;-86
2021/09/28 14:36:09;;;;;;;;;;;;;;;;;;4999869;28;19933;-86
2021/09/28 14:38:38;;;;;;;;;;;;;;;;;;5020272;28;19920;-85
2021/09/28 14:41:06;;;;;;;;;;;;;;;;;;5052250;28;19913;-85
2021/09/28 14:43:35;;;;;;;;;;;;;;;;;;5035467;28;19937;-86
2021/09/28 14:46:03;;;;;;;;;;;;;;;;;;5006661;28;20009;-85
2021/09/28 14:48:34;;;;;;;;;;;;;;;;;;5011385;28;19933;-85
2021/09/28 14:51:03;;;;;;;;;;;;;;;;;;5024689;28;19932;-86
2021/09/28 14:53:31;;;;;;;;;;;;;;;;;;5008875;28;19925;-86
2021/09/28 14:56:04;;;;;;;;;;;;;;;;;;5013647;28;20387;-86
2021/09/28 14:58:32;;;;;;;;;;;;;;;;;;5026657;28;20402;-86
2021/09/28 15:01:01;;;;;;;;;;;;;;;;;;5010600;28;19934;-86
2021/09/28 15:03:29;;;;;;;;;;;;;;;;;;5007640;28;20310;-85
2021/09/28 15:06:03;;;;;;;;;;;;;;;;;;5002658;28;19933;-86
2021/09/28 15:08:31;;;;;;;;;;;;;;;;;;5028833;28;19941;-87
2021/09/28 15:10:59;;;;;;;;;;;;;;;;;;5036267;28;19925;-86
2021/09/28 15:13:28;;;;;;;;;;;;;;;;;;5020971;28;19932;-84
2021/09/28 15:15:56;;;;;;;;;;;;;;;;;;4995176;28;19954;-87
2021/09/28 15:18:24;;;;;;;;;;;;;;;;;;5025148;28;20407;-86
2021/09/28 15:20:52;;;;;;;;;;;;;;;;;;5027946;28;19925;-89
2021/09/28 15:23:22;;;;;;;;;;;;;;;;;;5017591;28;19929;-88
2021/09/28 15:25:50;;;;;;;;;;;;;;;;;;5008478;28;20391;-89
2021/09/28 15:28:19;;;;;;;;;;;;;;;;;;5027864;28;19925;-89
2021/09/28 15:30:47;;;;;;;;;;;;;;;;;;5037094;28;19925;-86
2021/09/28 15:33:15;;;;;;;;;;;;;;;;;;5031854;28;19941;-85
2021/09/28 15:35:44;;;;;;;;;;;;;;;;;;5029822;28;19936;-86
2021/09/28 15:38:12;;;;;;;;;;;;;;;;;;5002629;28;19926;-89
2021/09/28 15:40:42;;;;;;;;;;;;;;;;;;5008414;28;19940;-87
2021/09/28 15:43:10;;;;;;;;;;;;;;;;;;5027842;28;19925;-89
2021/09/28 15:45:39;;;;;;;;;;;;;;;;;;5023390;28;19929;-87
2021/09/28 15:48:07;;;;;;;;;;;;;;;;;;5040055;28;19939;-88
2021/09/28 15:50:35;;;;;;;;;;;;;;;;;;5046717;28;19931;-89
2021/09/28 15:53:03;;;;;;;;;;;;;;;;;;5030143;28;19929;-86
2021/09/28 15:55:31;;;;;;;;;;;;;;;;;;5018388;28;19929;-86
2021/09/28 15:58:01;;;;;;;;;;;;;;;;;;5004599;28;19925;-88
2021/09/28 16:00:29;;;;;;;;;;;;;;;;;;5022571;28;19925;-86
2021/09/28 16:02:58;;;;;;;;;;;;;;;;;;5008076;28;19925;-87
2021/09/28 16:05:27;;;;;;;;;;;;;;;;;;5030420;28;19952;-89
2021/09/28 16:07:55;;;;;;;;;;;;;;;;;;5009203;28;19936;-89
2021/09/28 16:10:24;;;;;;;;;;;;;;;;;;5007370;28;19940;-89
2021/09/28 16:12:53;;;;;;;;;;;;;;;;;;5016889;28;19936;-88
2021/09/28 16:15:23;;;;;;;;;;;;;;;;;;5010758;28;19925;-89
2021/09/28 16:17:51;;;;;;;;;;;;;;;;;;5012817;28;19932;-89
2021/09/28 16:20:20;;;;;;;;;;;;;;;;;;5018169;28;19932;-89
2021/09/28 16:22:48;;;;;;;;;;;;;;;;;;5008903;28;19925;-89
2021/09/28 16:25:16;;;;;;;;;;;;;;;;;;5018992;28;20324;-88
2021/09/28 16:27:44;;;;;;;;;;;;;;;;;;5014280;28;20388;-89
2021/09/28 16:30:13;;;;;;;;;;;;;;;;;;5029977;28;19935;-89
2021/09/28 16:32:43;;;;;;;;;;;;;;;;;;5032518;28;19925;-89
2021/09/28 16:35:12;;;;;;;;;;;;;;;;;;5017683;28;19926;-89
2021/09/28 16:37:40;;;;;;;;;;;;;;;;;;5038618;28;19925;-89
2021/09/28 16:40:11;;;;;;;;;;;;;;;;;;5013170;28;19925;-89
2021/09/28 16:42:39;;;;;;;;;;;;;;;;;;5026495;28;19935;-86
2021/09/28 16:45:08;;;;;;;;;;;;;;;;;;5014224;28;19925;-87
2021/09/28 16:47:36;;;;;;;;;;;;;;;;;;5001830;28;20300;-88
2021/09/28 16:50:06;;;;;;;;;;;;;;;;;;5008805;28;19925;-89
2021/09/28 16:52:36;;;;;;;;;;;;;;;;;;5029193;28;19925;-90
2021/09/28 16:55:05;;;;;;;;;;;;;;;;;;5028152;28;19925;-90
2021/09/28 16:57:36;;;;;;;;;;;;;;;;;;5003986;28;19932;-90
2021/09/28 17:00:04;;;;;;;;;;;;;;;;;;5010472;28;19925;-90
2021/09/28 17:02:32;;;;;;;;;;;;;;;;;;5020465;28;19928;-89
2021/09/28 17:05:01;;;;;;;;;;;;;;;;;;5047151;28;19913;-89
2021/09/28 17:07:30;;;;;;;;;;;;;;;;;;5036072;28;19926;-89
2021/09/28 17:09:59;;;;;;;;;;;;;;;;;;5012122;28;19936;-90
2021/09/28 17:12:27;;;;;;;;;;;;;;;;;;5016571;28;19936;-89
2021/09/28 17:14:55;;;;;;;;;;;;;;;;;;5011367;28;19932;-88